Aviation Digital Data Service (ADDS)

Output produced by METARs form (2312 UTC 15 July 2018)
found at http://www.aviationweather.gov/adds/metars/
 
KGWO 152253Z AUTO 22005KT 10SM CLR 33/24 A2994 RMK AO2 LTG DSNT N AND E SLP136 T03280244
KGWO 152153Z AUTO 24004KT 10SM FEW046 SCT065 33/23 A2994 RMK AO2 LTG DSNT E SLP137 T03330233
KGWO 152053Z AUTO VRB05KT 10SM CLR 34/23 A2996 RMK AO2 SLP144 T03440228 56018
KGWO 151953Z AUTO 25005KT 10SM FEW043 34/24 A2998 RMK AO2 SLP147 T03440239
KGWO 151853Z AUTO 32003KT 10SM BKN042 34/24 A2998 RMK AO2 SLP149 T03390239
KGWO 151753Z AUTO VRB04KT 10SM FEW037 34/24 A3002 RMK AO2 SLP162 T03390244 10339 20256 58009
KGWO 151653Z AUTO 25005KT 10SM CLR 33/24 A3004 RMK AO2 SLP169 T03280244
KGWO 151553Z AUTO 24004KT 10SM CLR 32/24 A3004 RMK AO2 SLP169 T03170239
KGWO 151453Z AUTO VRB04KT 10SM CLR 30/24 A3005 RMK AO2 SLP171 T03000244 50004
KGWO 151353Z AUTO 20004KT 10SM CLR 29/25 A3005 RMK AO2 SLP172 T02890250
KGWO 151253Z AUTO 21004KT 10SM CLR 27/24 A3004 RMK AO2 SLP169 T02670244
KGWO 151153Z AUTO 00000KT 9SM CLR 26/24 A3003 RMK AO2 SLP167 T02560239 10261 20239 53008
KGWO 151053Z AUTO 19003KT 9SM CLR 24/23 A3002 RMK AO2 SLP162 T02440233
KGWO 150953Z AUTO 20003KT 10SM CLR 24/23 A3002 RMK AO2 SLP162 T02440233
KGWO 150853Z AUTO 00000KT 10SM CLR 25/23 A3001 RMK AO2 SLP159 T02500233 56004
KGWO 150753Z AUTO 18004KT 10SM CLR 26/23 A3001 RMK AO2 SLP159 T02560233
KGWO 150653Z AUTO 00000KT 10SM CLR 25/24 A3001 RMK AO2 SLP159 T02500239
KGWO 150553Z AUTO 00000KT 10SM CLR 26/24 A3002 RMK AO2 SLP162 T02610239 10333 20261 403500222 50001
KGWO 150453Z AUTO 16003KT 10SM CLR 27/24 A3004 RMK AO2 SLP169 T02670239
KGWO 150353Z AUTO 00000KT 10SM CLR 27/24 A3003 RMK AO2 SLP166 T02720244
KGWO 150253Z AUTO 18005KT 10SM CLR 28/26 A3002 RMK AO2 LTG DSNT S SLP161 T02780256 52012
KGWO 150153Z AUTO 00000KT 10SM CLR 28/26 A3000 RMK AO2 SLP157 T02830261
KGWO 150053Z AUTO 00000KT 10SM CLR 30/26 A2999 RMK AO2 SLP154 T03000261
KGWO 142353Z AUTO 00000KT 10SM CLR 33/24 A2998 RMK AO2 SLP149 T03330244 10350 20322 56011
KGWO 142253Z AUTO VRB03KT 10SM CLR 35/23 A2999 RMK AO2 SLP154 T03500228
KGWO 142153Z AUTO VRB03KT 10SM CLR 34/22 A3000 RMK AO2 LTG DSNT E AND SE SLP154 T03440217
KGWO 142053Z AUTO VRB05KT 10SM CLR 35/23 A3002 RMK AO2 SLP161 T03500233 57020
KGWO 141953Z AUTO 25005KT 10SM CLR 34/23 A3003 RMK AO2 SLP167 T03440228
KGWO 141853Z AUTO 21004KT 10SM CLR 34/23 A3006 RMK AO2 SLP175 T03390233
KGWO 141753Z AUTO 21006KT 10SM CLR 33/23 A3008 RMK AO2 SLP181 T03330233 10333 20233 58006
KGWO 141653Z AUTO VRB03KT 10SM CLR 33/23 A3009 RMK AO2 SLP187 T03280233
KGWO 141553Z AUTO 00000KT 10SM CLR 32/24 A3010 RMK AO2 SLP189 T03170239
KGWO 141453Z AUTO VRB03KT 10SM CLR 30/24 A3009 RMK AO2 SLP188 T03000239 50004
KGWO 141353Z AUTO 21005KT 10SM CLR 28/24 A3010 RMK AO2 SLP189 T02780239
KGWO 141253Z AUTO 21003KT 10SM CLR 26/23 A3009 RMK AO2 SLP188 T02560233
KGWO 141153Z AUTO 00000KT 10SM CLR 23/22 A3008 RMK AO2 SLP184 T02330222 10239 20222 51008 $
KGWO 141053Z AUTO 00000KT 9SM CLR 22/22 A3008 RMK AO2 SLP182 T02220217 $
KGWO 140953Z AUTO 00000KT 8SM CLR 23/22 A3007 RMK AO2 SLP179 T02280217 $
KGWO 140853Z AUTO 00000KT 10SM CLR 23/22 A3006 RMK AO2 SLP176 T02330222 55004 $
KGWO 140753Z AUTO 00000KT 10SM CLR 23/22 A3005 RMK AO2 SLP175 T02280222 $
KGWO 140653Z AUTO 00000KT 10SM CLR 23/22 A3006 RMK AO2 SLP175 T02330222 $
KGWO 140553Z AUTO 20003KT 10SM CLR 23/23 A3007 RMK AO2 SLP179 T02330228 10272 20233 403500233 50004 $
KGWO 140453Z AUTO 00000KT 10SM CLR 24/23 A3008 RMK AO2 SLP183 T02390228 $
KGWO 140353Z AUTO 00000KT 10SM CLR 24/23 A3007 RMK AO2 SLP179 T02440228 $
KGWO 140253Z AUTO 16004KT 10SM CLR 25/23 A3006 RMK AO2 SLP175 T02500228 53007 $
KGWO 140153Z AUTO 18005KT 10SM CLR 26/23 A3004 RMK AO2 SLP170 T02560233 $
KGWO 140053Z AUTO 00000KT 10SM CLR 27/24 A3004 RMK AO2 SLP172 T02670239 $
KGWO 132353Z AUTO 20003KT 10SM CLR 27/23 A3004 RMK AO2 SLP169 T02720233 10350 20272 $
KGWO 132253Z AUTO 19006KT 10SM CLR 28/24 A3005 RMK AO2 SLP173 T02830239 $
KGWO 132153Z AUTO 17008KT 10SM CLR 31/27 A3006 RMK AO2 LTG DSNT N AND S AND SW SLP175 T03110267 $
KGWO 132053Z AUTO 00000KT 10SM CLR 32/26 A3006 RMK AO2 LTG DSNT S SLP175 T03220256 56013
KGWO 131953Z AUTO 31003KT 10SM SCT041 SCT070 33/24 A3006 RMK AO2 SLP175 T03280244
KGWO 131853Z AUTO VRB05KT 10SM BKN043 34/24 A3007 RMK AO2 LTG DSNT E AND SE SLP179 T03440244
KGWO 131753Z AUTO 36003KT 10SM SCT032 SCT055 34/24 A3009 RMK AO2 SLP188 T03390244 10344 20256 58010
KGWO 131653Z AUTO 01003KT 10SM CLR 33/24 A3011 RMK AO2 SLP193 T03330244
KGWO 131553Z AUTO 00000KT 10SM CLR 33/25 A3012 RMK AO2 SLP197 T03280250
KGWO 131453Z AUTO 33004KT 10SM CLR 32/24 A3013 RMK AO2 SLP198 T03170244 51012
KGWO 131353Z AUTO 33003KT 10SM CLR 29/25 A3012 RMK AO2 SLP198 T02940250
KGWO 131253Z AUTO 00000KT 10SM CLR 27/24 A3011 RMK AO2 SLP193 T02720239
KGWO 131153Z AUTO 00000KT 10SM CLR 26/24 A3009 RMK AO2 SLP187 T02560239 10267 20239 53012
KGWO 131053Z AUTO 00000KT 8SM CLR 24/23 A3007 RMK AO2 SLP180 T02390233
KGWO 130953Z AUTO 00000KT 8SM FEW048 24/23 A3006 RMK AO2 SLP177 T02440233
KGWO 130853Z AUTO 00000KT 9SM CLR 24/23 A3006 RMK AO2 SLP175 T02440233 53002
KGWO 130753Z AUTO 00000KT 10SM CLR 25/24 A3005 RMK AO2 SLP172 T02500239
KGWO 130653Z AUTO 00000KT 10SM CLR 26/24 A3005 RMK AO2 SLP172 T02560239
KGWO 130553Z AUTO 00000KT 10SM CLR 26/24 A3005 RMK AO2 SLP172 T02610244 10328 20261 403500233 58002
KGWO 130453Z AUTO 00000KT 10SM CLR 26/24 A3006 RMK AO2 SLP177 T02610244
KGWO 130353Z AUTO 07004KT 10SM CLR 27/26 A3007 RMK AO2 SLP178 T02720256
KGWO 130253Z AUTO 00000KT 10SM CLR 28/25 A3005 RMK AO2 SLP174 T02780250 53014
KGWO 130153Z AUTO 00000KT 10SM CLR 27/24 A3003 RMK AO2 SLP166 T02720244
KGWO 130053Z AUTO 00000KT 10SM CLR 31/23 A3002 RMK AO2 SLP163 T03110233
KGWO 122353Z AUTO 00000KT 10SM CLR 33/24 A3001 RMK AO2 SLP160 T03280239 10350 20328 58007